sensor_id;sensor_type;location;lat;lon;timestamp;pressure;altitude;pressure_sealevel;temperature;humidity
54936;BME280;40838;50.676;7.838;2023-05-01T00:01:05;98454.66;;;6.81;96.90
54936;BME280;40838;50.676;7.838;2023-05-01T00:03:32;98446.84;;;6.97;97.59
54936;BME280;40838;50.676;7.838;2023-05-01T00:05:59;98454.59;;;6.76;99.89
54936;BME280;40838;50.676;7.838;2023-05-01T00:08:26;98455.03;;;6.95;97.20
54936;BME280;40838;50.676;7.838;2023-05-01T00:10:53;98445.28;;;6.74;99.03
54936;BME280;40838;50.676;7.838;2023-05-01T00:13:20;98439.13;;;6.68;98.34
54936;BME280;40838;50.676;7.838;2023-05-01T00:15:48;98442.28;;;6.65;98.11
54936;BME280;40838;50.676;7.838;2023-05-01T00:18:17;98432.19;;;6.62;98.83
54936;BME280;40838;50.676;7.838;2023-05-01T00:20:43;98435.91;;;6.88;98.05
54936;BME280;40838;50.676;7.838;2023-05-01T00:23:10;98430.03;;;6.59;99.36
54936;BME280;40838;50.676;7.838;2023-05-01T00:25:37;98426.16;;;6.44;100.00
54936;BME280;40838;50.676;7.838;2023-05-01T00:28:04;98429.31;;;6.41;100.00
54936;BME280;40838;50.676;7.838;2023-05-01T00:30:33;98420.50;;;6.36;100.00
54936;BME280;40838;50.676;7.838;2023-05-01T00:33:00;98422.69;;;6.66;99.83
54936;BME280;40838;50.676;7.838;2023-05-01T00:35:28;98422.47;;;6.67;98.53
54936;BME280;40838;50.676;7.838;2023-05-01T00:37:55;98416.88;;;6.42;100.00
54936;BME280;40838;50.676;7.838;2023-05-01T00:40:23;98420.19;;;6.54;100.00
54936;BME280;40838;50.676;7.838;2023-05-01T00:42:50;98411.66;;;6.25;100.00
54936;BME280;40838;50.676;7.838;2023-05-01T00:45:16;98417.38;;;6.39;100.00
54936;BME280;40838;50.676;7.838;2023-05-01T00:47:43;98415.91;;;6.26;100.00
54936;BME280;40838;50.676;7.838;2023-05-01T00:50:10;98406.44;;;6.30;100.00
54936;BME280;40838;50.676;7.838;2023-05-01T00:52:38;98412.69;;;6.24;100.00
54936;BME280;40838;50.676;7.838;2023-05-01T00:55:05;98399.78;;;6.06;100.00
54936;BME280;40838;50.676;7.838;2023-05-01T00:57:32;98400.69;;;6.38;100.00
54936;BME280;40838;50.676;7.838;2023-05-01T00:59:59;98398.25;;;6.32;100.00
54936;BME280;40838;50.676;7.838;2023-05-01T01:02:25;98394.00;;;6.31;100.00
54936;BME280;40838;50.676;7.838;2023-05-01T01:04:52;98389.47;;;6.26;100.00
54936;BME280;40838;50.676;7.838;2023-05-01T01:07:21;98383.38;;;6.25;100.00
54936;BME280;40838;50.676;7.838;2023-05-01T01:09:54;98386.56;;;6.28;100.00
54936;BME280;40838;50.676;7.838;2023-05-01T01:12:23;98373.94;;;6.13;100.00
54936;BME280;40838;50.676;7.838;2023-05-01T01:14:54;98376.34;;;6.14;100.00
54936;BME280;40838;50.676;7.838;2023-05-01T01:17:26;98371.31;;;6.13;100.00
54936;BME280;40838;50.676;7.838;2023-05-01T01:20:12;98369.59;;;6.23;100.00
54936;BME280;40838;50.676;7.838;2023-05-01T01:22:40;98365.81;;;6.19;100.00
54936;BME280;40838;50.676;7.838;2023-05-01T01:25:15;98365.44;;;6.33;100.00
54936;BME280;40838;50.676;7.838;2023-05-01T01:27:49;98356.47;;;6.12;100.00
54936;BME280;40838;50.676;7.838;2023-05-01T01:30:28;98353.22;;;6.05;100.00
54936;BME280;40838;50.676;7.838;2023-05-01T01:33:15;98354.56;;;6.29;100.00
54936;BME280;40838;50.676;7.838;2023-05-01T01:35:45;98351.66;;;6.31;100.00
54936;BME280;40838;50.676;7.838;2023-05-01T01:38:19;98344.97;;;6.23;100.00
54936;BME280;40838;50.676;7.838;2023-05-01T01:40:49;98340.56;;;6.29;100.00
54936;BME280;40838;50.676;7.838;2023-05-01T01:43:19;98350.06;;;6.30;100.00
54936;BME280;40838;50.676;7.838;2023-05-01T01:45:49;98345.00;;;6.28;100.00
54936;BME280;40838;50.676;7.838;2023-05-01T01:48:20;98338.75;;;6.61;100.00
54936;BME280;40838;50.676;7.838;2023-05-01T01:50:49;98345.50;;;6.25;100.00
54936;BME280;40838;50.676;7.838;2023-05-01T01:53:18;98336.44;;;6.43;100.00
54936;BME280;40838;50.676;7.838;2023-05-01T01:55:45;98337.47;;;6.15;100.00
54936;BME280;40838;50.676;7.838;2023-05-01T01:58:14;98331.75;;;6.23;100.00
54936;BME280;40838;50.676;7.838;2023-05-01T02:00:41;98330.56;;;6.36;100.00
54936;BME280;40838;50.676;7.838;2023-05-01T02:03:11;98324.06;;;6.48;100.00
54936;BME280;40838;50.676;7.838;2023-05-01T02:05:39;98316.69;;;6.23;100.00
54936;BME280;40838;50.676;7.838;2023-05-01T02:08:08;98316.59;;;6.40;100.00
54936;BME280;40838;50.676;7.838;2023-05-01T02:10:36;98311.19;;;6.30;100.00
54936;BME280;40838;50.676;7.838;2023-05-01T02:13:06;98315.03;;;6.44;100.00
54936;BME280;40838;50.676;7.838;2023-05-01T02:15:34;98311.94;;;6.25;100.00
54936;BME280;40838;50.676;7.838;2023-05-01T02:18:02;98307.59;;;6.41;100.00
54936;BME280;40838;50.676;7.838;2023-05-01T02:20:29;98296.19;;;6.14;100.00
54936;BME280;40838;50.676;7.838;2023-05-01T02:22:56;98291.56;;;6.26;100.00
54936;BME280;40838;50.676;7.838;2023-05-01T02:25:25;98292.44;;;6.32;100.00
54936;BME280;40838;50.676;7.838;2023-05-01T02:27:54;98299.25;;;6.28;100.00
54936;BME280;40838;50.676;7.838;2023-05-01T02:30:21;98289.81;;;6.37;100.00
54936;BME280;40838;50.676;7.838;2023-05-01T02:32:48;98291.59;;;6.31;100.00
54936;BME280;40838;50.676;7.838;2023-05-01T02:35:15;98285.06;;;6.12;100.00
54936;BME280;40838;50.676;7.838;2023-05-01T02:37:42;98294.56;;;6.35;100.00
54936;BME280;40838;50.676;7.838;2023-05-01T02:40:09;98287.56;;;5.96;100.00
54936;BME280;40838;50.676;7.838;2023-05-01T02:42:38;98283.53;;;6.16;100.00
54936;BME280;40838;50.676;7.838;2023-05-01T02:45:06;98282.63;;;6.32;100.00
54936;BME280;40838;50.676;7.838;2023-05-01T02:47:36;98282.84;;;6.25;100.00
54936;BME280;40838;50.676;7.838;2023-05-01T02:50:03;98280.00;;;6.05;100.00
54936;BME280;40838;50.676;7.838;2023-05-01T02:52:31;98278.09;;;6.28;100.00
54936;BME280;40838;50.676;7.838;2023-05-01T02:55:16;98279.16;;;5.83;100.00
54936;BME280;40838;50.676;7.838;2023-05-01T02:57:45;98279.84;;;5.73;100.00
54936;BME280;40838;50.676;7.838;2023-05-01T03:00:12;98266.41;;;5.52;100.00
54936;BME280;40838;50.676;7.838;2023-05-01T03:02:39;98264.44;;;5.87;100.00
54936;BME280;40838;50.676;7.838;2023-05-01T03:05:06;98273.38;;;4.86;100.00
54936;BME280;40838;50.676;7.838;2023-05-01T03:07:33;98274.09;;;5.37;100.00
54936;BME280;40838;50.676;7.838;2023-05-01T03:09:59;98270.66;;;5.37;100.00
54936;BME280;40838;50.676;7.838;2023-05-01T03:12:27;98265.38;;;5.80;100.00
54936;BME280;40838;50.676;7.838;2023-05-01T03:14:55;98274.56;;;5.73;100.00
54936;BME280;40838;50.676;7.838;2023-05-01T03:17:22;98262.88;;;5.69;100.00
54936;BME280;40838;50.676;7.838;2023-05-01T03:19:48;98262.50;;;5.38;100.00
54936;BME280;40838;50.676;7.838;2023-05-01T03:22:16;98258.81;;;5.00;100.00
54936;BME280;40838;50.676;7.838;2023-05-01T03:24:42;98265.16;;;5.60;100.00
54936;BME280;40838;50.676;7.838;2023-05-01T03:27:09;98259.25;;;5.53;100.00
54936;BME280;40838;50.676;7.838;2023-05-01T03:29:36;98259.63;;;5.62;100.00
54936;BME280;40838;50.676;7.838;2023-05-01T03:32:04;98249.81;;;5.84;100.00
54936;BME280;40838;50.676;7.838;2023-05-01T03:34:32;98250.81;;;5.78;100.00
54936;BME280;40838;50.676;7.838;2023-05-01T03:36:59;98238.59;;;5.72;100.00
54936;BME280;40838;50.676;7.838;2023-05-01T03:39:26;98245.94;;;5.65;100.00
54936;BME280;40838;50.676;7.838;2023-05-01T03:42:21;98243.41;;;5.97;100.00
54936;BME280;40838;50.676;7.838;2023-05-01T03:44:54;98244.13;;;6.14;100.00
54936;BME280;40838;50.676;7.838;2023-05-01T03:47:23;98236.72;;;6.16;100.00
54936;BME280;40838;50.676;7.838;2023-05-01T03:49:49;98237.06;;;6.25;100.00
54936;BME280;40838;50.676;7.838;2023-05-01T03:52:16;98236.81;;;6.27;100.00
54936;BME280;40838;50.676;7.838;2023-05-01T03:54:43;98245.13;;;6.13;100.00
54936;BME280;40838;50.676;7.838;2023-05-01T03:57:20;98237.50;;;5.90;100.00
54936;BME280;40838;50.676;7.838;2023-05-01T03:59:47;98235.47;;;6.24;100.00
54936;BME280;40838;50.676;7.838;2023-05-01T04:02:14;98237.78;;;6.47;100.00
54936;BME280;40838;50.676;7.838;2023-05-01T04:04:44;98240.66;;;6.41;100.00
54936;BME280;40838;50.676;7.838;2023-05-01T04:07:11;98232.50;;;6.47;100.00
54936;BME280;40838;50.676;7.838;2023-05-01T04:09:38;98236.72;;;6.43;100.00
54936;BME280;40838;50.676;7.838;2023-05-01T04:12:05;98233.38;;;6.58;100.00
54936;BME280;40838;50.676;7.838;2023-05-01T04:14:32;98244.25;;;6.30;100.00
54936;BME280;40838;50.676;7.838;2023-05-01T04:16:59;98238.13;;;6.56;100.00
54936;BME280;40838;50.676;7.838;2023-05-01T04:19:28;98236.28;;;6.57;100.00
54936;BME280;40838;50.676;7.838;2023-05-01T04:21:58;98230.09;;;6.78;100.00
54936;BME280;40838;50.676;7.838;2023-05-01T04:24:26;98229.41;;;6.93;100.00
54936;BME280;40838;50.676;7.838;2023-05-01T04:26:53;98233.81;;;6.82;100.00
54936;BME280;40838;50.676;7.838;2023-05-01T04:29:20;98231.63;;;6.74;100.00
54936;BME280;40838;50.676;7.838;2023-05-01T04:31:47;98233.59;;;6.89;99.65
54936;BME280;40838;50.676;7.838;2023-05-01T04:34:13;98233.78;;;7.20;98.79
54936;BME280;40838;50.676;7.838;2023-05-01T04:36:40;98227.53;;;6.93;97.73
54936;BME280;40838;50.676;7.838;2023-05-01T04:39:08;98223.59;;;6.96;99.00
54936;BME280;40838;50.676;7.838;2023-05-01T04:41:35;98224.38;;;6.97;97.55
54936;BME280;40838;50.676;7.838;2023-05-01T04:44:03;98218.94;;;7.13;100.00
54936;BME280;40838;50.676;7.838;2023-05-01T04:46:31;98225.34;;;7.23;99.73
54936;BME280;40838;50.676;7.838;2023-05-01T04:48:57;98220.75;;;7.13;96.40
54936;BME280;40838;50.676;7.838;2023-05-01T04:51:24;98228.91;;;7.44;95.01
54936;BME280;40838;50.676;7.838;2023-05-01T04:53:53;98223.91;;;7.05;95.89
54936;BME280;40838;50.676;7.838;2023-05-01T04:56:25;98222.41;;;7.24;97.18
54936;BME280;40838;50.676;7.838;2023-05-01T04:58:56;98219.16;;;7.54;96.54
54936;BME280;40838;50.676;7.838;2023-05-01T05:01:25;98223.59;;;6.96;100.00
54936;BME280;40838;50.676;7.838;2023-05-01T05:03:52;98222.50;;;6.92;100.00
54936;BME280;40838;50.676;7.838;2023-05-01T05:06:19;98220.50;;;6.40;100.00
54936;BME280;40838;50.676;7.838;2023-05-01T05:08:46;98217.75;;;6.94;100.00
54936;BME280;40838;50.676;7.838;2023-05-01T05:11:16;98221.59;;;6.76;100.00
54936;BME280;40838;50.676;7.838;2023-05-01T05:14:07;98221.34;;;6.78;100.00
54936;BME280;40838;50.676;7.838;2023-05-01T05:16:35;98216.63;;;6.85;100.00
54936;BME280;40838;50.676;7.838;2023-05-01T05:19:02;98221.78;;;6.64;100.00
54936;BME280;40838;50.676;7.838;2023-05-01T05:21:34;98220.63;;;6.87;100.00
54936;BME280;40838;50.676;7.838;2023-05-01T05:24:02;98213.13;;;7.16;100.00
54936;BME280;40838;50.676;7.838;2023-05-01T05:26:31;98215.84;;;6.84;100.00
54936;BME280;40838;50.676;7.838;2023-05-01T05:29:00;98228.16;;;6.68;100.00
54936;BME280;40838;50.676;7.838;2023-05-01T05:31:28;98223.66;;;6.69;100.00
54936;BME280;40838;50.676;7.838;2023-05-01T05:33:55;98212.13;;;6.85;100.00
54936;BME280;40838;50.676;7.838;2023-05-01T05:36:22;98203.28;;;7.12;100.00
54936;BME280;40838;50.676;7.838;2023-05-01T05:38:49;98208.88;;;7.21;100.00
54936;BME280;40838;50.676;7.838;2023-05-01T05:41:17;98211.97;;;7.50;95.59
54936;BME280;40838;50.676;7.838;2023-05-01T05:43:46;98209.13;;;7.72;91.95
54936;BME280;40838;50.676;7.838;2023-05-01T05:46:14;98214.69;;;7.80;95.71
54936;BME280;40838;50.676;7.838;2023-05-01T05:48:42;98204.47;;;7.36;92.82
54936;BME280;40838;50.676;7.838;2023-05-01T05:51:09;98204.34;;;7.74;93.18
54936;BME280;40838;50.676;7.838;2023-05-01T05:53:36;98208.09;;;7.78;94.46
54936;BME280;40838;50.676;7.838;2023-05-01T05:56:02;98201.50;;;7.96;89.07
54936;BME280;40838;50.676;7.838;2023-05-01T05:58:30;98206.75;;;7.75;91.61
54936;BME280;40838;50.676;7.838;2023-05-01T06:00:57;98199.63;;;8.06;89.53
54936;BME280;40838;50.676;7.838;2023-05-01T06:03:24;98199.09;;;7.94;89.49
54936;BME280;40838;50.676;7.838;2023-05-01T06:05:56;98201.38;;;7.60;91.05
54936;BME280;40838;50.676;7.838;2023-05-01T06:08:23;98198.34;;;8.19;89.50
54936;BME280;40838;50.676;7.838;2023-05-01T06:10:49;98204.38;;;7.84;92.15
54936;BME280;40838;50.676;7.838;2023-05-01T06:13:16;98208.13;;;7.93;90.67
54936;BME280;40838;50.676;7.838;2023-05-01T06:15:46;98203.06;;;7.81;89.49
54936;BME280;40838;50.676;7.838;2023-05-01T06:18:13;98210.72;;;7.83;88.70
54936;BME280;40838;50.676;7.838;2023-05-01T06:20:40;98203.94;;;8.28;90.93
54936;BME280;40838;50.676;7.838;2023-05-01T06:23:08;98201.28;;;8.43;85.54
54936;BME280;40838;50.676;7.838;2023-05-01T06:25:57;98213.47;;;8.34;86.87
54936;BME280;40838;50.676;7.838;2023-05-01T06:28:24;98198.88;;;8.42;87.54
54936;BME280;40838;50.676;7.838;2023-05-01T06:30:51;98201.56;;;8.57;82.66
54936;BME280;40838;50.676;7.838;2023-05-01T06:33:18;98195.16;;;8.79;82.54
54936;BME280;40838;50.676;7.838;2023-05-01T06:35:55;98203.03;;;9.30;77.61
54936;BME280;40838;50.676;7.838;2023-05-01T06:38:25;98208.19;;;8.80;82.00
54936;BME280;40838;50.676;7.838;2023-05-01T06:40:52;98206.47;;;9.30;82.41
54936;BME280;40838;50.676;7.838;2023-05-01T06:43:18;98201.19;;;9.85;76.60
54936;BME280;40838;50.676;7.838;2023-05-01T06:45:45;98204.34;;;9.92;78.60
54936;BME280;40838;50.676;7.838;2023-05-01T06:48:12;98213.34;;;9.36;77.75
54936;BME280;40838;50.676;7.838;2023-05-01T06:50:40;98205.81;;;9.59;78.47
54936;BME280;40838;50.676;7.838;2023-05-01T06:53:07;98204.78;;;9.55;76.19
54936;BME280;40838;50.676;7.838;2023-05-01T06:55:36;98204.91;;;9.84;74.84
54936;BME280;40838;50.676;7.838;2023-05-01T06:58:03;98204.44;;;9.77;74.88
54936;BME280;40838;50.676;7.838;2023-05-01T07:00:32;98202.16;;;9.99;73.54
54936;BME280;40838;50.676;7.838;2023-05-01T07:02:59;98185.00;;;9.76;72.69
54936;BME280;40838;50.676;7.838;2023-05-01T07:05:27;98201.38;;;9.39;77.47
54936;BME280;40838;50.676;7.838;2023-05-01T07:07:54;98200.22;;;9.71;74.56
54936;BME280;40838;50.676;7.838;2023-05-01T07:10:20;98203.06;;;9.79;73.93
54936;BME280;40838;50.676;7.838;2023-05-01T07:12:48;98196.09;;;9.29;77.08
54936;BME280;40838;50.676;7.838;2023-05-01T07:15:15;98200.59;;;9.93;75.25
54936;BME280;40838;50.676;7.838;2023-05-01T07:17:42;98199.63;;;10.23;72.79
54936;BME280;40838;50.676;7.838;2023-05-01T07:20:10;98200.06;;;9.96;75.72
54936;BME280;40838;50.676;7.838;2023-05-01T07:22:36;98208.00;;;10.01;74.65
54936;BME280;40838;50.676;7.838;2023-05-01T07:25:03;98191.75;;;10.42;72.84
54936;BME280;40838;50.676;7.838;2023-05-01T07:27:30;98194.88;;;10.15;74.22
54936;BME280;40838;50.676;7.838;2023-05-01T07:29:58;98196.09;;;10.33;73.85
54936;BME280;40838;50.676;7.838;2023-05-01T07:32:27;98197.16;;;10.95;70.42
54936;BME280;40838;50.676;7.838;2023-05-01T07:34:57;98188.97;;;10.87;70.22
54936;BME280;40838;50.676;7.838;2023-05-01T07:37:23;98179.94;;;11.12;69.71
54936;BME280;40838;50.676;7.838;2023-05-01T07:39:51;98181.81;;;11.11;68.26
54936;BME280;40838;50.676;7.838;2023-05-01T07:42:17;98184.00;;;11.04;69.71
54936;BME280;40838;50.676;7.838;2023-05-01T07:44:45;98189.09;;;11.00;69.52
54936;BME280;40838;50.676;7.838;2023-05-01T07:47:13;98180.00;;;11.26;68.84
54936;BME280;40838;50.676;7.838;2023-05-01T07:49:40;98175.94;;;10.85;69.03
54936;BME280;40838;50.676;7.838;2023-05-01T07:52:07;98181.75;;;11.59;63.49
54936;BME280;40838;50.676;7.838;2023-05-01T07:54:33;98178.66;;;11.71;61.68
54936;BME280;40838;50.676;7.838;2023-05-01T07:57:00;98179.91;;;11.36;66.62
54936;BME280;40838;50.676;7.838;2023-05-01T07:59:27;98180.06;;;11.63;66.14
54936;BME280;40838;50.676;7.838;2023-05-01T08:01:54;98177.19;;;11.60;65.68
54936;BME280;40838;50.676;7.838;2023-05-01T08:04:23;98177.16;;;12.03;62.70
54936;BME280;40838;50.676;7.838;2023-05-01T08:06:49;98171.38;;;12.47;61.33
54936;BME280;40838;50.676;7.838;2023-05-01T08:09:16;98172.63;;;12.69;62.56
54936;BME280;40838;50.676;7.838;2023-05-01T08:11:43;98170.22;;;13.91;55.95
54936;BME280;40838;50.676;7.838;2023-05-01T08:14:09;98163.25;;;14.80;47.83
54936;BME280;40838;50.676;7.838;2023-05-01T08:16:36;98165.53;;;14.96;48.19
54936;BME280;40838;50.676;7.838;2023-05-01T08:19:03;98168.41;;;14.68;52.49
54936;BME280;40838;50.676;7.838;2023-05-01T08:21:31;98178.69;;;15.15;45.59
54936;BME280;40838;50.676;7.838;2023-05-01T08:23:57;98165.88;;;16.56;42.66
54936;BME280;40838;50.676;7.838;2023-05-01T08:26:24;98173.63;;;15.04;46.34
54936;BME280;40838;50.676;7.838;2023-05-01T08:28:51;98176.88;;;14.61;48.94
54936;BME280;40838;50.676;7.838;2023-05-01T08:31:17;98168.03;;;14.38;50.81
54936;BME280;40838;50.676;7.838;2023-05-01T08:33:45;98173.09;;;14.17;51.09
54936;BME280;40838;50.676;7.838;2023-05-01T08:36:11;98172.59;;;15.32;48.96
54936;BME280;40838;50.676;7.838;2023-05-01T08:38:39;98174.34;;;13.98;51.54
54936;BME280;40838;50.676;7.838;2023-05-01T08:41:08;98174.91;;;14.08;53.73
54936;BME280;40838;50.676;7.838;2023-05-01T08:43:35;98162.88;;;16.40;47.96
54936;BME280;40838;50.676;7.838;2023-05-01T08:46:02;98164.00;;;14.50;50.22
54936;BME280;40838;50.676;7.838;2023-05-01T08:48:33;98170.25;;;14.36;49.16
54936;BME280;40838;50.676;7.838;2023-05-01T08:51:00;98166.03;;;14.98;49.28
54936;BME280;40838;50.676;7.838;2023-05-01T08:53:29;98159.28;;;15.09;48.46
54936;BME280;40838;50.676;7.838;2023-05-01T08:56:01;98165.75;;;15.65;45.88
54936;BME280;40838;50.676;7.838;2023-05-01T08:58:31;98166.47;;;14.15;51.20
54936;BME280;40838;50.676;7.838;2023-05-01T09:00:59;98166.78;;;13.77;50.86
54936;BME280;40838;50.676;7.838;2023-05-01T09:03:27;98163.50;;;14.39;49.43
54936;BME280;40838;50.676;7.838;2023-05-01T09:05:57;98160.78;;;15.33;44.11
54936;BME280;40838;50.676;7.838;2023-05-01T09:08:24;98148.53;;;16.83;40.16
54936;BME280;40838;50.676;7.838;2023-05-01T09:10:51;98152.34;;;14.46;48.38
54936;BME280;40838;50.676;7.838;2023-05-01T09:13:21;98144.03;;;15.27;43.01
54936;BME280;40838;50.676;7.838;2023-05-01T09:15:47;98133.34;;;16.14;41.41
54936;BME280;40838;50.676;7.838;2023-05-01T09:18:14;98133.19;;;16.28;41.10
54936;BME280;40838;50.676;7.838;2023-05-01T09:20:41;98132.88;;;16.12;44.00
54936;BME280;40838;50.676;7.838;2023-05-01T09:23:07;98140.88;;;14.85;43.89
54936;BME280;40838;50.676;7.838;2023-05-01T09:25:34;98131.66;;;16.18;41.54
54936;BME280;40838;50.676;7.838;2023-05-01T09:28:03;98127.44;;;17.53;39.61
54936;BME280;40838;50.676;7.838;2023-05-01T09:30:32;98138.44;;;14.44;44.05
54936;BME280;40838;50.676;7.838;2023-05-01T09:33:04;98134.13;;;16.88;39.90
54936;BME280;40838;50.676;7.838;2023-05-01T09:35:31;98123.16;;;17.82;37.72
54936;BME280;40838;50.676;7.838;2023-05-01T09:37:58;98137.72;;;14.29;49.63
54936;BME280;40838;50.676;7.838;2023-05-01T09:40:25;98134.16;;;16.32;49.49
54936;BME280;40838;50.676;7.838;2023-05-01T09:42:54;98129.84;;;17.75;42.46
54936;BME280;40838;50.676;7.838;2023-05-01T09:45:22;98119.25;;;17.91;39.97
54936;BME280;40838;50.676;7.838;2023-05-01T09:47:50;98118.50;;;18.70;39.00
54936;BME280;40838;50.676;7.838;2023-05-01T09:50:27;98126.69;;;18.61;41.99
54936;BME280;40838;50.676;7.838;2023-05-01T09:52:54;98126.50;;;17.79;40.00
54936;BME280;40838;50.676;7.838;2023-05-01T09:55:21;98120.56;;;16.75;42.81
54936;BME280;40838;50.676;7.838;2023-05-01T09:57:49;98122.88;;;16.56;40.89
54936;BME280;40838;50.676;7.838;2023-05-01T10:00:15;98122.41;;;16.45;41.36
54936;BME280;40838;50.676;7.838;2023-05-01T10:02:45;98121.03;;;15.61;43.04
54936;BME280;40838;50.676;7.838;2023-05-01T10:05:13;98118.50;;;15.73;46.96
54936;BME280;40838;50.676;7.838;2023-05-01T10:07:52;98122.44;;;15.41;46.64
54936;BME280;40838;50.676;7.838;2023-05-01T10:10:20;98124.81;;;16.29;44.01
54936;BME280;40838;50.676;7.838;2023-05-01T10:12:47;98116.94;;;15.81;45.90
54936;BME280;40838;50.676;7.838;2023-05-01T10:15:14;98115.25;;;16.58;44.62
54936;BME280;40838;50.676;7.838;2023-05-01T10:17:41;98109.94;;;16.88;47.28
54936;BME280;40838;50.676;7.838;2023-05-01T10:20:11;98109.63;;;16.16;49.70
54936;BME280;40838;50.676;7.838;2023-05-01T10:22:39;98122.50;;;15.01;50.36
54936;BME280;40838;50.676;7.838;2023-05-01T10:25:07;98106.03;;;15.42;49.56
54936;BME280;40838;50.676;7.838;2023-05-01T10:27:37;98113.94;;;15.56;48.24
54936;BME280;40838;50.676;7.838;2023-05-01T10:30:05;98112.31;;;16.33;49.56
54936;BME280;40838;50.676;7.838;2023-05-01T10:32:33;98108.22;;;16.74;46.07
54936;BME280;40838;50.676;7.838;2023-05-01T10:35:01;98113.13;;;15.73;47.50
54936;BME280;40838;50.676;7.838;2023-05-01T10:37:32;98113.78;;;15.79;49.39
54936;BME280;40838;50.676;7.838;2023-05-01T10:45:29;98101.47;;;17.06;42.53
54936;BME280;40838;50.676;7.838;2023-05-01T10:47:56;98097.78;;;16.26;44.08
54936;BME280;40838;50.676;7.838;2023-05-01T10:50:23;98101.47;;;15.69;41.69
54936;BME280;40838;50.676;7.838;2023-05-01T10:55:38;98097.50;;;15.49;45.73
54936;BME280;40838;50.676;7.838;2023-05-01T10:58:07;98094.97;;;15.70;46.57
54936;BME280;40838;50.676;7.838;2023-05-01T11:00:36;98096.41;;;15.85;48.01
54936;BME280;40838;50.676;7.838;2023-05-01T11:08:32;98083.31;;;15.57;49.67
54936;BME280;40838;50.676;7.838;2023-05-01T11:11:43;98088.00;;;16.04;50.60
54936;BME280;40838;50.676;7.838;2023-05-01T11:13:58;98087.25;;;15.94;49.42
54936;BME280;40838;50.676;7.838;2023-05-01T11:16:43;98088.66;;;16.01;47.32
54936;BME280;40838;50.676;7.838;2023-05-01T11:19:42;98089.84;;;15.08;54.41
54936;BME280;40838;50.676;7.838;2023-05-01T11:21:58;98088.59;;;15.14;51.52
54936;BME280;40838;50.676;7.838;2023-05-01T11:24:30;98089.16;;;15.42;54.23
54936;BME280;40838;50.676;7.838;2023-05-01T11:26:57;98089.59;;;15.79;44.68
54936;BME280;40838;50.676;7.838;2023-05-01T11:29:27;98088.38;;;15.59;49.03
54936;BME280;40838;50.676;7.838;2023-05-01T11:31:57;98089.16;;;15.77;45.21
54936;BME280;40838;50.676;7.838;2023-05-01T11:34:23;98093.91;;;15.71;46.97
54936;BME280;40838;50.676;7.838;2023-05-01T11:36:51;98096.56;;;15.62;47.23
54936;BME280;40838;50.676;7.838;2023-05-01T11:39:18;98090.50;;;16.35;47.25
54936;BME280;40838;50.676;7.838;2023-05-01T11:41:46;98089.13;;;16.20;46.46
54936;BME280;40838;50.676;7.838;2023-05-01T11:44:14;98085.81;;;15.88;48.27
54936;BME280;40838;50.676;7.838;2023-05-01T11:46:41;98075.25;;;15.57;43.63
54936;BME280;40838;50.676;7.838;2023-05-01T11:49:09;98079.97;;;15.43;41.80
54936;BME280;40838;50.676;7.838;2023-05-01T11:51:36;98084.91;;;14.92;46.26
54936;BME280;40838;50.676;7.838;2023-05-01T11:54:03;98080.56;;;15.31;48.40
54936;BME280;40838;50.676;7.838;2023-05-01T11:56:31;98080.91;;;14.72;43.36
54936;BME280;40838;50.676;7.838;2023-05-01T11:59:07;98077.16;;;15.65;44.10
54936;BME280;40838;50.676;7.838;2023-05-01T12:01:34;98071.41;;;16.19;41.92
54936;BME280;40838;50.676;7.838;2023-05-01T12:04:01;98070.00;;;16.60;41.00
54936;BME280;40838;50.676;7.838;2023-05-01T12:06:36;98077.28;;;15.95;40.08
54936;BME280;40838;50.676;7.838;2023-05-01T12:09:05;98072.38;;;16.23;38.25
54936;BME280;40838;50.676;7.838;2023-05-01T12:11:32;98069.09;;;15.65;35.32
54936;BME280;40838;50.676;7.838;2023-05-01T12:14:00;98069.31;;;16.72;39.81
54936;BME280;40838;50.676;7.838;2023-05-01T12:16:27;98066.50;;;17.27;33.03
54936;BME280;40838;50.676;7.838;2023-05-01T12:18:54;98070.84;;;16.81;35.92
54936;BME280;40838;50.676;7.838;2023-05-01T12:21:25;98072.53;;;16.01;35.41
54936;BME280;40838;50.676;7.838;2023-05-01T12:23:53;98075.56;;;15.38;38.55
54936;BME280;40838;50.676;7.838;2023-05-01T12:26:22;98072.50;;;16.27;38.18
54936;BME280;40838;50.676;7.838;2023-05-01T12:28:53;98071.91;;;15.86;39.27
54936;BME280;40838;50.676;7.838;2023-05-01T12:31:20;98073.03;;;15.85;37.84
54936;BME280;40838;50.676;7.838;2023-05-01T12:33:51;98064.81;;;15.56;39.61
54936;BME280;40838;50.676;7.838;2023-05-01T12:36:20;98068.31;;;15.47;38.58
54936;BME280;40838;50.676;7.838;2023-05-01T12:38:58;98075.03;;;14.61;41.66
54936;BME280;40838;50.676;7.838;2023-05-01T12:41:31;98070.59;;;15.23;43.08
54936;BME280;40838;50.676;7.838;2023-05-01T12:43:58;98074.41;;;14.33;44.45
54936;BME280;40838;50.676;7.838;2023-05-01T12:46:25;98071.94;;;14.46;45.66
54936;BME280;40838;50.676;7.838;2023-05-01T12:48:52;98070.22;;;14.50;47.14
54936;BME280;40838;50.676;7.838;2023-05-01T12:51:19;98070.53;;;14.48;47.79
54936;BME280;40838;50.676;7.838;2023-05-01T12:53:46;98072.00;;;14.94;49.70
54936;BME280;40838;50.676;7.838;2023-05-01T12:56:20;98073.38;;;14.52;48.34
54936;BME280;40838;50.676;7.838;2023-05-01T12:58:48;98073.97;;;14.40;50.00
54936;BME280;40838;50.676;7.838;2023-05-01T13:01:22;98074.13;;;14.75;46.94
54936;BME280;40838;50.676;7.838;2023-05-01T13:03:51;98065.69;;;15.08;50.81
54936;BME280;40838;50.676;7.838;2023-05-01T13:06:18;98071.25;;;15.20;49.20
54936;BME280;40838;50.676;7.838;2023-05-01T13:08:45;98067.19;;;14.82;45.48
54936;BME280;40838;50.676;7.838;2023-05-01T13:11:12;98057.09;;;15.45;48.22
54936;BME280;40838;50.676;7.838;2023-05-01T13:13:41;98064.75;;;14.95;48.34
54936;BME280;40838;50.676;7.838;2023-05-01T13:16:09;98055.47;;;15.10;46.73
54936;BME280;40838;50.676;7.838;2023-05-01T13:18:43;98056.41;;;15.14;50.24
54936;BME280;40838;50.676;7.838;2023-05-01T13:21:11;98054.41;;;15.45;48.86
54936;BME280;40838;50.676;7.838;2023-05-01T13:23:46;98055.66;;;15.74;45.31